createdAt,value
2018-03-22T00:01:16.589Z,6.50
2018-03-22T00:03:44.162Z,6.60
2018-03-22T00:06:11.793Z,6.77
2018-03-22T00:08:39.312Z,6.37
2018-03-22T00:11:06.813Z,6.43
2018-03-22T00:13:34.334Z,6.17
2018-03-22T00:16:01.825Z,5.50
2018-03-22T00:18:29.325Z,6.50
2018-03-22T00:20:56.840Z,5.37
2018-03-22T00:23:24.337Z,6.13
2018-03-22T00:25:52.140Z,6.87
2018-03-22T00:28:19.646Z,6.00
2018-03-22T00:30:47.216Z,6.87
2018-03-22T00:33:14.820Z,6.43
2018-03-22T00:35:42.332Z,6.40
2018-03-22T00:38:09.872Z,5.80
2018-03-22T00:40:37.383Z,6.40
2018-03-22T00:43:04.887Z,6.10
2018-03-22T00:45:32.400Z,6.47
2018-03-22T00:47:59.882Z,5.53
2018-03-22T00:50:27.392Z,6.80
2018-03-22T00:52:54.892Z,6.37
2018-03-22T00:55:22.479Z,6.87
2018-03-22T00:57:49.978Z,7.27
2018-03-22T01:00:17.507Z,7.43
2018-03-22T01:02:45.045Z,7.77
2018-03-22T01:05:12.592Z,7.10
2018-03-22T01:07:40.092Z,6.63
2018-03-22T01:10:07.610Z,7.10
2018-03-22T01:12:35.191Z,7.43
2018-03-22T01:15:02.872Z,7.03
2018-03-22T01:17:30.428Z,7.33
2018-03-22T01:19:57.976Z,7.23
2018-03-22T01:22:25.499Z,7.50
2018-03-22T01:24:53.071Z,6.83
2018-03-22T01:27:20.660Z,7.43
2018-03-22T01:29:48.159Z,7.30
2018-03-22T01:32:15.860Z,6.97
2018-03-22T01:34:43.434Z,7.13
2018-03-22T01:37:10.959Z,7.10
2018-03-22T01:39:38.448Z,6.97
2018-03-22T01:42:06.020Z,7.30
2018-03-22T01:44:33.593Z,7.13
2018-03-22T01:47:01.138Z,6.47
2018-03-22T01:49:28.692Z,7.30
2018-03-22T01:51:56.212Z,7.50
2018-03-22T01:54:23.706Z,7.27
2018-03-22T01:56:51.235Z,7.43
2018-03-22T01:59:18.748Z,7.33
2018-03-22T02:01:46.333Z,6.97
2018-03-22T02:04:13.841Z,7.37
2018-03-22T02:06:41.360Z,7.00
2018-03-22T02:09:08.888Z,7.27
2018-03-22T02:11:36.420Z,7.67
2018-03-22T02:14:03.923Z,7.47
2018-03-22T02:16:31.447Z,7.90
2018-03-22T02:18:58.951Z,6.87
2018-03-22T02:21:26.664Z,7.53
2018-03-22T02:23:54.155Z,8.27
2018-03-22T02:26:21.690Z,7.87
2018-03-22T02:28:49.204Z,8.80
2018-03-22T02:31:16.699Z,7.87
2018-03-22T02:33:44.261Z,7.90
2018-03-22T02:36:11.935Z,7.30
2018-03-22T02:38:39.452Z,7.63
2018-03-22T02:41:07.036Z,7.00
2018-03-22T02:43:34.555Z,7.73
2018-03-22T02:46:02.052Z,8.67
2018-03-22T02:48:29.685Z,8.20
2018-03-22T02:50:57.345Z,7.27
2018-03-22T02:53:24.875Z,7.47
2018-03-22T02:55:52.447Z,7.40
2018-03-22T02:58:19.986Z,8.23
2018-03-22T03:00:47.488Z,7.87
2018-03-22T03:03:15.008Z,7.33
2018-03-22T03:05:42.504Z,8.17
2018-03-22T03:08:10.087Z,8.23
2018-03-22T03:10:37.666Z,7.20
2018-03-22T03:13:05.189Z,8.47
2018-03-22T03:15:32.692Z,6.90
2018-03-22T03:18:00.236Z,6.80
2018-03-22T03:20:27.743Z,7.60
2018-03-22T03:22:55.267Z,7.27
2018-03-22T03:25:22.760Z,6.83
2018-03-22T03:27:50.263Z,7.17
2018-03-22T03:30:17.855Z,7.20
2018-03-22T03:32:45.348Z,7.03
2018-03-22T03:35:12.896Z,6.80
2018-03-22T03:37:40.404Z,7.40
2018-03-22T03:40:07.960Z,7.27
2018-03-22T03:42:35.487Z,7.13
2018-03-22T03:45:03.020Z,7.00
2018-03-22T03:47:30.517Z,8.17
2018-03-22T03:49:58.040Z,6.80
2018-03-22T03:52:25.532Z,7.53
2018-03-22T03:54:53.092Z,7.70
2018-03-22T03:57:20.586Z,7.37
2018-03-22T03:59:48.124Z,6.80
2018-03-22T04:02:21.090Z,7.33
2018-03-22T04:04:48.612Z,6.80
2018-03-22T04:07:16.198Z,6.40
2018-03-22T04:09:43.737Z,7.20
2018-03-22T04:12:11.256Z,6.67
2018-03-22T04:14:38.783Z,6.67
2018-03-22T04:17:06.275Z,6.10
2018-03-22T04:19:33.788Z,6.90
2018-03-22T04:22:01.295Z,6.40
2018-03-22T04:24:29.812Z,6.43
2018-03-22T04:26:57.299Z,6.33
2018-03-22T04:29:24.867Z,7.53
2018-03-22T04:31:52.559Z,7.90
2018-03-22T04:34:20.103Z,8.43
2018-03-22T04:36:47.669Z,8.13
2018-03-22T04:39:15.221Z,6.50
2018-03-22T04:41:42.744Z,7.43
2018-03-22T04:44:10.231Z,6.33
2018-03-22T04:46:37.812Z,7.00
2018-03-22T04:49:05.362Z,7.27
2018-03-22T04:51:32.876Z,7.60
2018-03-22T04:54:00.478Z,8.07
2018-03-22T04:56:27.992Z,7.90
2018-03-22T04:58:55.501Z,8.20
2018-03-22T05:01:23.056Z,7.70
2018-03-22T05:03:50.551Z,7.13
2018-03-22T05:06:18.177Z,8.40
2018-03-22T05:08:45.724Z,8.13
2018-03-22T05:11:13.259Z,7.43
2018-03-22T05:13:40.855Z,7.60
2018-03-22T05:16:08.371Z,7.60
2018-03-22T05:18:35.861Z,7.23
2018-03-22T05:21:03.371Z,7.47
2018-03-22T05:23:30.892Z,8.17
2018-03-22T05:25:58.417Z,9.13
2018-03-22T05:28:26.024Z,10.63
2018-03-22T05:30:53.544Z,9.10
2018-03-22T05:33:21.051Z,10.00
2018-03-22T05:35:48.592Z,9.47
2018-03-22T05:38:16.116Z,10.27
2018-03-22T05:40:43.616Z,10.27
2018-03-22T05:43:11.177Z,9.83
2018-03-22T05:45:38.770Z,9.57
2018-03-22T05:48:06.320Z,8.20
2018-03-22T05:50:33.847Z,8.70
2018-03-22T05:53:01.582Z,8.30
2018-03-22T05:55:29.136Z,8.17
2018-03-22T05:57:56.683Z,8.30
2018-03-22T06:00:24.187Z,7.93
2018-03-22T06:02:51.753Z,8.90
2018-03-22T06:05:19.248Z,8.13
2018-03-22T06:07:46.920Z,8.33
2018-03-22T06:10:14.419Z,8.23
2018-03-22T06:12:41.931Z,7.40
2018-03-22T06:15:09.428Z,7.20
2018-03-22T06:17:36.947Z,6.97
2018-03-22T06:20:04.443Z,6.67
2018-03-22T06:22:32.068Z,7.33
2018-03-22T06:24:59.588Z,7.20
2018-03-22T06:27:27.079Z,8.13
2018-03-22T06:29:54.596Z,7.43
2018-03-22T06:32:22.101Z,7.13
2018-03-22T06:34:49.659Z,7.97
2018-03-22T06:37:17.152Z,7.90
2018-03-22T06:39:44.672Z,8.53
2018-03-22T06:42:12.273Z,8.73
2018-03-22T06:44:39.813Z,9.27
2018-03-22T06:47:07.364Z,11.70
2018-03-22T06:49:34.887Z,7.90
2018-03-22T06:52:02.504Z,8.90
2018-03-22T06:54:30.031Z,7.50
2018-03-22T06:56:57.576Z,8.70
2018-03-22T06:59:25.104Z,9.07
2018-03-22T07:01:52.742Z,7.70
2018-03-22T07:04:20.264Z,8.40
2018-03-22T07:06:47.762Z,8.23
2018-03-22T07:09:15.391Z,8.40
2018-03-22T07:11:42.896Z,8.20
2018-03-22T07:14:10.419Z,8.77
2018-03-22T07:16:37.975Z,8.27
2018-03-22T07:19:05.496Z,8.43
2018-03-22T07:21:33.001Z,7.80
2018-03-22T07:24:00.491Z,7.73
2018-03-22T07:26:28.112Z,7.77
2018-03-22T07:28:55.608Z,7.83
2018-03-22T07:31:23.127Z,6.93
2018-03-22T07:33:50.616Z,6.90
2018-03-22T07:36:18.133Z,7.00
2018-03-22T07:38:45.632Z,7.30
2018-03-22T07:41:13.177Z,9.10
2018-03-22T07:43:42.791Z,7.53
2018-03-22T07:46:10.627Z,6.50
2018-03-22T07:48:38.116Z,6.57
2018-03-22T07:51:06.569Z,6.93
2018-03-22T07:53:34.057Z,7.13
2018-03-22T07:56:01.632Z,6.80
2018-03-22T07:58:29.136Z,6.73
2018-03-22T08:00:56.647Z,6.30
2018-03-22T08:03:24.186Z,7.17
2018-03-22T08:05:51.808Z,6.07
2018-03-22T08:08:19.319Z,6.40
2018-03-22T08:10:46.843Z,5.83
2018-03-22T08:13:14.346Z,7.77
2018-03-22T08:15:41.868Z,8.23
2018-03-22T08:18:09.366Z,7.33
2018-03-22T08:20:36.897Z,6.77
2018-03-22T08:23:04.412Z,6.63
2018-03-22T08:25:31.944Z,8.83
2018-03-22T08:27:59.449Z,7.60
2018-03-22T08:30:27.024Z,7.57
2018-03-22T08:32:54.533Z,6.97
2018-03-22T08:35:22.061Z,8.30
2018-03-22T08:37:49.607Z,7.30
2018-03-22T08:40:17.095Z,6.50
2018-03-22T08:42:45.455Z,7.73
2018-03-22T08:45:13.023Z,7.83
2018-03-22T08:47:40.558Z,8.20
2018-03-22T08:50:08.117Z,7.80
2018-03-22T08:52:35.637Z,7.40
2018-03-22T08:55:03.131Z,7.80
2018-03-22T08:57:30.648Z,7.83
2018-03-22T08:59:58.260Z,8.10
2018-03-22T09:02:25.776Z,8.03
2018-03-22T09:04:53.432Z,7.83
2018-03-22T09:07:20.956Z,7.67
2018-03-22T09:09:48.489Z,8.07
2018-03-22T09:12:16.020Z,8.70
2018-03-22T09:14:43.574Z,8.60
2018-03-22T09:17:11.106Z,8.33
2018-03-22T09:19:38.596Z,7.63
2018-03-22T09:22:06.135Z,8.40
2018-03-22T09:24:33.624Z,8.40
2018-03-22T09:27:05.994Z,8.40
2018-03-22T09:29:33.483Z,8.30
2018-03-22T09:32:01.056Z,8.63
2018-03-22T09:34:28.568Z,8.93
2018-03-22T09:36:56.166Z,8.50
2018-03-22T09:39:23.661Z,7.97
2018-03-22T09:41:51.190Z,7.93
2018-03-22T09:44:18.727Z,9.33
2018-03-22T09:46:46.233Z,7.43
2018-03-22T09:49:13.783Z,8.20
2018-03-22T09:51:41.303Z,8.27
2018-03-22T09:54:08.864Z,7.07
2018-03-22T09:56:37.325Z,7.50
2018-03-22T09:59:04.900Z,8.80
2018-03-22T10:01:32.392Z,7.80
2018-03-22T10:04:00.774Z,7.73
2018-03-22T10:06:28.351Z,8.10
2018-03-22T10:08:55.840Z,8.20
2018-03-22T10:11:23.371Z,7.90
2018-03-22T10:13:50.988Z,7.27
2018-03-22T10:16:18.598Z,7.77
2018-03-22T10:18:46.140Z,8.10
2018-03-22T10:21:13.676Z,8.23
2018-03-22T10:23:41.454Z,7.70
2018-03-22T10:26:08.966Z,7.83
2018-03-22T10:28:36.767Z,6.30
2018-03-22T10:31:04.272Z,8.43
2018-03-22T10:33:31.792Z,8.37
2018-03-22T10:35:59.311Z,7.53
2018-03-22T10:38:27.104Z,8.47
2018-03-22T10:40:54.621Z,7.47
2018-03-22T10:43:22.216Z,8.10
2018-03-22T10:45:49.737Z,7.00
2018-03-22T10:48:17.247Z,6.33
2018-03-22T10:50:44.800Z,6.70
2018-03-22T10:53:12.335Z,6.07
2018-03-22T10:55:39.948Z,6.90
2018-03-22T10:58:07.501Z,6.10
2018-03-22T11:00:37.868Z,6.67
2018-03-22T11:03:10.967Z,7.13
2018-03-22T11:05:38.555Z,6.53
2018-03-22T11:08:06.092Z,6.13
2018-03-22T11:10:33.620Z,7.80
2018-03-22T11:13:01.140Z,6.90
2018-03-22T11:15:28.664Z,6.23
2018-03-22T11:17:56.172Z,6.33
2018-03-22T11:20:23.704Z,5.60
2018-03-22T11:22:51.199Z,5.70
2018-03-22T11:25:19.633Z,5.23
2018-03-22T11:27:47.124Z,5.93
2018-03-22T11:30:14.680Z,6.53
2018-03-22T11:32:42.325Z,5.80
2018-03-22T11:35:09.900Z,5.17
2018-03-22T11:37:37.405Z,5.77
2018-03-22T11:40:04.895Z,5.33
2018-03-22T11:42:32.462Z,4.33
2018-03-22T11:45:00.033Z,4.70
2018-03-22T11:47:27.572Z,4.90
2018-03-22T11:49:55.059Z,4.87
2018-03-22T11:52:22.595Z,5.07
2018-03-22T11:54:50.092Z,5.37
2018-03-22T11:57:17.620Z,4.77
2018-03-22T11:59:45.108Z,4.53
2018-03-22T12:02:12.645Z,4.50
2018-03-22T12:04:40.151Z,4.23
2018-03-22T12:07:07.755Z,4.87
2018-03-22T12:09:35.643Z,5.33
2018-03-22T12:12:03.184Z,4.37
2018-03-22T12:14:30.707Z,4.10
2018-03-22T12:16:58.227Z,3.87
2018-03-22T12:19:25.756Z,4.87
2018-03-22T12:21:53.282Z,4.13
2018-03-22T12:24:21.120Z,4.63
2018-03-22T12:26:48.780Z,4.33
2018-03-22T12:29:16.318Z,4.30
2018-03-22T12:31:44.170Z,4.50
2018-03-22T12:34:11.666Z,4.80
2018-03-22T12:36:39.179Z,4.87
2018-03-22T12:39:06.698Z,5.30
2018-03-22T12:41:34.218Z,5.77
2018-03-22T12:44:01.754Z,5.67
2018-03-22T12:46:29.257Z,5.33
2018-03-22T12:48:56.810Z,5.37
2018-03-22T12:51:24.336Z,6.47
2018-03-22T12:53:51.869Z,5.90
2018-03-22T12:56:19.371Z,6.30
2018-03-22T12:58:46.885Z,6.23
2018-03-22T13:01:14.383Z,6.50
2018-03-22T13:03:41.953Z,7.07
2018-03-22T13:06:09.456Z,7.57
2018-03-22T13:08:37.882Z,7.47
2018-03-22T13:11:05.411Z,7.13
2018-03-22T13:13:33.020Z,7.67
2018-03-22T13:16:00.535Z,7.23
2018-03-22T13:18:28.060Z,7.63
2018-03-22T13:20:55.566Z,7.60
2018-03-22T13:23:23.088Z,7.80
2018-03-22T13:25:50.662Z,7.80
2018-03-22T13:28:18.238Z,7.07
2018-03-22T13:30:45.732Z,6.80
2018-03-22T13:33:13.259Z,6.50
2018-03-22T13:35:40.798Z,6.30
2018-03-22T13:38:08.395Z,6.13
2018-03-22T13:40:35.884Z,7.00
2018-03-22T13:43:04.403Z,5.93
2018-03-22T13:45:32.124Z,7.07
2018-03-22T13:47:59.620Z,6.40
2018-03-22T13:50:27.215Z,7.43
2018-03-22T13:52:54.889Z,6.53
2018-03-22T13:55:22.417Z,6.67
2018-03-22T13:57:50.001Z,6.43
2018-03-22T14:00:17.532Z,7.80
2018-03-22T14:02:45.025Z,8.00
2018-03-22T14:05:12.553Z,8.47
2018-03-22T14:07:40.063Z,9.10
2018-03-22T14:10:07.702Z,9.27
2018-03-22T14:12:35.213Z,9.20
2018-03-22T14:15:02.733Z,8.70
2018-03-22T14:17:30.236Z,9.70
2018-03-22T14:19:57.757Z,10.93
2018-03-22T14:22:25.248Z,11.13
2018-03-22T14:24:52.800Z,12.20
2018-03-22T14:27:20.298Z,10.80
2018-03-22T14:29:47.861Z,11.43
2018-03-22T14:32:15.424Z,13.37
2018-03-22T14:34:42.942Z,12.30
2018-03-22T14:37:10.436Z,14.47
2018-03-22T14:39:37.955Z,12.93
2018-03-22T14:42:05.449Z,13.10
2018-03-22T14:44:32.967Z,14.00
2018-03-22T14:47:00.460Z,15.03
2018-03-22T14:49:27.959Z,15.63
2018-03-22T14:51:55.599Z,14.23
2018-03-22T14:54:23.095Z,16.17
2018-03-22T14:56:50.615Z,16.33
2018-03-22T14:59:18.180Z,15.03
2018-03-22T15:01:45.836Z,14.40
2018-03-22T15:04:13.339Z,13.57
2018-03-22T15:06:40.965Z,13.57
2018-03-22T15:09:08.559Z,13.33
2018-03-22T15:11:36.075Z,13.43
2018-03-22T15:14:03.576Z,13.03
2018-03-22T15:16:31.193Z,13.27
2018-03-22T15:18:58.689Z,12.90
2018-03-22T15:21:26.210Z,13.67
2018-03-22T15:23:53.768Z,13.13
2018-03-22T15:26:21.326Z,13.20
2018-03-22T15:28:48.820Z,13.30
2018-03-22T15:31:16.453Z,13.20
2018-03-22T15:33:44.003Z,13.10
2018-03-22T15:36:11.527Z,13.20
2018-03-22T15:38:39.016Z,13.50
2018-03-22T15:41:06.538Z,13.07
2018-03-22T15:43:34.081Z,15.00
2018-03-22T15:46:01.602Z,14.77
2018-03-22T15:48:29.095Z,14.57
2018-03-22T15:50:56.591Z,14.70
2018-03-22T15:53:24.106Z,15.10
2018-03-22T15:55:51.644Z,17.60
2018-03-22T15:58:19.164Z,14.53
2018-03-22T16:00:46.655Z,13.90
2018-03-22T16:03:14.183Z,13.40
2018-03-22T16:05:41.758Z,12.57
2018-03-22T16:08:09.275Z,12.47
2018-03-22T16:10:36.784Z,13.20
2018-03-22T16:13:04.354Z,13.83
2018-03-22T16:15:31.846Z,13.43
2018-03-22T16:17:59.370Z,12.90
2018-03-22T16:20:26.882Z,14.10
2018-03-22T16:22:54.485Z,13.83
2018-03-22T16:25:22.024Z,14.40
2018-03-22T16:27:49.598Z,14.00
2018-03-22T16:30:17.129Z,14.17
2018-03-22T16:32:44.744Z,14.60
2018-03-22T16:35:12.256Z,14.67
2018-03-22T16:37:39.781Z,14.17
2018-03-22T16:40:07.339Z,14.20
2018-03-22T16:42:34.922Z,14.17
2018-03-22T16:45:02.405Z,14.47
2018-03-22T16:47:29.928Z,14.03
2018-03-22T16:49:57.472Z,13.87
2018-03-22T16:52:25.952Z,14.50
2018-03-22T16:54:53.488Z,13.73
2018-03-22T16:57:20.990Z,14.80
2018-03-22T16:59:48.513Z,16.47
2018-03-22T17:02:16.037Z,14.13
2018-03-22T17:04:43.701Z,15.07
2018-03-22T17:07:12.194Z,15.43
2018-03-22T17:09:39.765Z,14.03
2018-03-22T17:12:07.257Z,14.33
2018-03-22T17:14:34.884Z,14.83
2018-03-22T17:17:02.448Z,13.97
2018-03-22T17:19:29.965Z,14.23
2018-03-22T17:21:57.464Z,13.70
2018-03-22T17:24:24.976Z,14.77
2018-03-22T17:26:52.769Z,18.30
2018-03-22T17:29:20.295Z,15.97
2018-03-22T17:31:47.792Z,14.63
2018-03-22T17:34:15.320Z,13.77
2018-03-22T17:36:42.820Z,15.30
2018-03-22T17:39:10.332Z,15.87
2018-03-22T17:41:37.831Z,14.47
2018-03-22T17:44:05.359Z,14.03
2018-03-22T17:46:32.854Z,14.37
2018-03-22T17:49:00.373Z,15.40
2018-03-22T17:51:27.897Z,15.63
2018-03-22T17:53:55.392Z,14.10
2018-03-22T17:56:22.919Z,14.57
2018-03-22T17:58:50.407Z,15.70
2018-03-22T18:01:17.930Z,16.40
2018-03-22T18:03:45.484Z,15.13
2018-03-22T18:06:13.006Z,17.03
2018-03-22T18:08:40.524Z,15.57
2018-03-22T18:11:08.108Z,22.87
2018-03-22T18:13:35.611Z,16.60
2018-03-22T18:16:03.134Z,16.40
2018-03-22T18:18:30.626Z,15.90
2018-03-22T18:20:58.149Z,16.17
2018-03-22T18:23:25.641Z,16.37
2018-03-22T18:25:53.217Z,15.53
2018-03-22T18:28:20.713Z,15.17
2018-03-22T18:30:49.095Z,16.93
2018-03-22T18:33:16.637Z,23.77
2018-03-22T18:35:44.183Z,20.23
2018-03-22T18:38:11.700Z,16.43
2018-03-22T18:40:39.234Z,14.30
2018-03-22T18:43:06.760Z,17.80
2018-03-22T18:45:34.291Z,17.27
2018-03-22T18:48:01.822Z,17.17
2018-03-22T18:50:29.403Z,17.60
2018-03-22T18:52:56.933Z,18.27
2018-03-22T18:55:24.460Z,19.47
2018-03-22T18:57:51.966Z,19.33
2018-03-22T19:00:19.463Z,27.63
2018-03-22T19:02:47.090Z,21.90
2018-03-22T19:05:14.576Z,27.90
2018-03-22T19:07:42.169Z,17.93
2018-03-22T19:10:09.754Z,18.90
2018-03-22T19:12:37.279Z,19.30
2018-03-22T19:15:04.789Z,28.27
2018-03-22T19:17:32.382Z,21.40
2018-03-22T19:19:59.907Z,18.93
2018-03-22T19:22:27.460Z,19.27
2018-03-22T19:24:54.968Z,18.37
2018-03-22T19:27:22.483Z,20.37
2018-03-22T19:29:50.017Z,20.80
2018-03-22T19:32:17.687Z,20.43
2018-03-22T19:34:45.258Z,22.07
2018-03-22T19:37:12.791Z,21.33
2018-03-22T19:39:40.364Z,20.63
2018-03-22T19:42:07.883Z,21.70
2018-03-22T19:44:35.384Z,20.40
2018-03-22T19:47:02.924Z,22.23
2018-03-22T19:49:30.529Z,21.13
2018-03-22T19:51:58.055Z,20.17
2018-03-22T19:54:25.559Z,20.20
2018-03-22T19:56:53.203Z,24.10
2018-03-22T19:59:20.756Z,24.83
2018-03-22T20:01:48.270Z,20.83
2018-03-22T20:04:15.767Z,29.33
2018-03-22T20:06:43.339Z,22.83
2018-03-22T20:09:10.880Z,23.13
2018-03-22T20:11:38.380Z,23.13
2018-03-22T20:14:05.891Z,21.67
2018-03-22T20:16:33.387Z,21.90
2018-03-22T20:19:00.926Z,22.33
2018-03-22T20:21:28.485Z,22.63
2018-03-22T20:23:56.023Z,22.87
2018-03-22T20:26:23.525Z,21.87
2018-03-22T20:28:51.152Z,21.67
2018-03-22T20:31:19.802Z,20.53
2018-03-22T20:33:47.396Z,22.37
2018-03-22T20:36:14.921Z,23.07
2018-03-22T20:38:42.439Z,22.00
2018-03-22T20:41:09.950Z,22.20
2018-03-22T20:43:37.536Z,23.80
2018-03-22T20:46:05.043Z,25.63
2018-03-22T20:48:32.568Z,21.83
2018-03-22T20:51:00.060Z,20.93
2018-03-22T20:53:27.581Z,22.10
2018-03-22T20:55:55.094Z,20.13
2018-03-22T20:58:22.608Z,21.60
2018-03-22T21:00:50.162Z,20.93
2018-03-22T21:03:17.688Z,22.33
2018-03-22T21:05:45.214Z,21.17
2018-03-22T21:08:12.809Z,20.43
2018-03-22T21:10:41.285Z,20.60
2018-03-22T21:13:08.781Z,20.97
2018-03-22T21:15:36.419Z,20.93
2018-03-22T21:18:03.912Z,21.87
2018-03-22T21:20:31.435Z,22.43
2018-03-22T21:22:58.956Z,21.20
2018-03-22T21:25:26.564Z,20.77
2018-03-22T21:27:54.076Z,20.53
2018-03-22T21:30:21.684Z,21.60
2018-03-22T21:32:49.184Z,20.80
2018-03-22T21:35:16.700Z,20.40
2018-03-22T21:37:44.191Z,19.20
2018-03-22T21:40:11.834Z,20.10
2018-03-22T21:42:39.333Z,19.30
2018-03-22T21:45:06.862Z,19.37
2018-03-22T21:47:34.376Z,18.63
2018-03-22T21:50:01.895Z,17.87
2018-03-22T21:52:41.385Z,18.43
2018-03-22T21:55:08.976Z,17.93
2018-03-22T21:57:36.514Z,19.03
2018-03-22T22:00:04.052Z,19.00
2018-03-22T22:02:33.554Z,20.13
2018-03-22T22:05:01.086Z,19.47
2018-03-22T22:07:28.604Z,21.37
2018-03-22T22:09:56.124Z,19.70
2018-03-22T22:12:23.641Z,20.47
2018-03-22T22:14:51.172Z,20.07
2018-03-22T22:17:18.735Z,19.00
2018-03-22T22:19:46.231Z,21.17
2018-03-22T22:22:13.775Z,18.63
2018-03-22T22:24:41.276Z,18.37
2018-03-22T22:27:08.804Z,18.60
2018-03-22T22:29:37.252Z,18.77
2018-03-22T22:32:04.772Z,18.47
2018-03-22T22:34:32.284Z,18.23
2018-03-22T22:36:59.820Z,19.43
2018-03-22T22:39:27.419Z,19.43
2018-03-22T22:41:54.954Z,19.87
2018-03-22T22:44:22.509Z,19.07
2018-03-22T22:46:50.076Z,18.87
2018-03-22T22:49:17.588Z,17.93
2018-03-22T22:51:45.192Z,16.67
2018-03-22T22:54:12.746Z,14.97
2018-03-22T22:56:40.304Z,16.10
2018-03-22T22:59:07.815Z,16.53
2018-03-22T23:01:35.338Z,16.53
2018-03-22T23:04:02.831Z,16.87
2018-03-22T23:06:30.349Z,15.37
2018-03-22T23:08:57.899Z,15.03
2018-03-22T23:11:25.411Z,14.87
2018-03-22T23:13:52.936Z,13.63
2018-03-22T23:16:20.455Z,14.67
2018-03-22T23:18:47.957Z,15.17
2018-03-22T23:21:15.496Z,14.13
2018-03-22T23:23:42.992Z,14.90
2018-03-22T23:26:10.504Z,14.63
2018-03-22T23:28:38.065Z,16.23
2018-03-22T23:31:05.590Z,15.83
2018-03-22T23:33:33.205Z,13.87
2018-03-22T23:36:00.743Z,13.70
2018-03-22T23:38:28.247Z,13.53
2018-03-22T23:40:55.830Z,13.40
2018-03-22T23:43:23.319Z,13.97
2018-03-22T23:45:50.883Z,14.47
2018-03-22T23:48:18.423Z,13.33
2018-03-22T23:50:45.938Z,13.43
2018-03-22T23:53:13.471Z,14.23
2018-03-22T23:55:41.019Z,13.10
2018-03-22T23:58:08.544Z,13.53
